Time;durP1;ratioP1;P1;durP2;ratioP2;P2;SDS_P1;SDS_P2;PMS_P1;PMS_P2;Temp;Humidity;BMP_temperature;BMP_pressure;BME280_temperature;BME280_humidity;BME280_pressure;Samples;Min_cycle;Max_cycle;Signal;HPM_P1;HPM_P2
2023/06/01 00:01:21;;;;;;;4.88;2.50;;;20.70;57.00;;;;;;6184723;28;20037;-73
2023/06/01 00:04:34;;;;;;;4.32;2.30;;;20.70;57.10;;;;;;6217859;28;20135;-71
2023/06/01 00:07:42;;;;;;;3.28;2.20;;;20.70;57.20;;;;;;6217269;28;20129;-71
2023/06/01 00:10:56;;;;;;;6.60;2.38;;;20.70;57.30;;;;;;6217540;28;20029;-73
2023/06/01 00:14:08;;;;;;;6.07;2.65;;;20.60;57.30;;;;;;6218610;28;20041;-71
2023/06/01 00:17:25;;;;;;;6.88;2.50;;;20.60;57.40;;;;;;6242142;28;20037;-71
2023/06/01 00:20:32;;;;;;;6.53;2.25;;;20.60;57.50;;;;;;6242366;28;20032;-71
2023/06/01 00:23:49;;;;;;;4.22;2.28;;;20.60;57.50;;;;;;6224428;28;20037;-72
2023/06/01 00:27:01;;;;;;;3.70;2.15;;;20.60;57.60;;;;;;6241556;28;20029;-70
2023/06/01 00:30:16;;;;;;;3.75;2.30;;;20.60;57.60;;;;;;6241957;28;20033;-71
2023/06/01 00:33:25;;;;;;;3.53;1.90;;;20.60;57.60;;;;;;6241395;28;20022;-71
2023/06/01 00:36:37;;;;;;;5.78;2.60;;;20.60;57.60;;;;;;6240353;28;20116;-71
2023/06/01 00:39:48;;;;;;;3.75;1.95;;;20.60;57.60;;;;;;6241097;28;20101;-72
2023/06/01 00:43:02;;;;;;;4.80;2.08;;;20.60;57.60;;;;;;6241312;28;20034;-72
2023/06/01 00:46:20;;;;;;;5.30;2.67;;;20.50;57.60;;;;;;6224636;28;20067;-72
2023/06/01 00:49:28;;;;;;;4.97;2.20;;;20.50;57.70;;;;;;6241112;28;20033;-71
2023/06/01 00:52:41;;;;;;;3.13;2.13;;;20.50;57.70;;;;;;6222954;28;20033;-71
2023/06/01 00:55:56;;;;;;;3.75;2.22;;;20.50;57.80;;;;;;6240575;28;20021;-72
2023/06/01 00:59:19;;;;;;;3.65;2.22;;;20.50;57.80;;;;;;6240906;28;20037;-73
2023/06/01 01:02:31;;;;;;;4.40;2.33;;;20.50;57.70;;;;;;6240970;28;20014;-71
2023/06/01 01:05:42;;;;;;;4.00;2.33;;;20.40;57.60;;;;;;6240836;28;20209;-72
2023/06/01 01:09:13;;;;;;;3.17;1.90;;;20.40;57.60;;;;;;6223255;28;20089;-71
2023/06/01 01:12:31;;;;;;;5.55;2.40;;;20.40;57.70;;;;;;6223352;28;20109;-71
2023/06/01 01:15:49;;;;;;;6.93;2.08;;;20.40;57.60;;;;;;6240702;28;20037;-71
2023/06/01 01:19:21;;;;;;;6.20;2.35;;;20.30;57.60;;;;;;6240321;28;20041;-72
2023/06/01 01:22:36;;;;;;;7.47;2.35;;;20.30;57.70;;;;;;6240146;28;20083;-71
2023/06/01 01:26:19;;;;;;;5.68;2.40;;;20.30;57.80;;;;;;6240176;28;20080;-72
2023/06/01 01:29:32;;;;;;;4.20;2.05;;;20.30;57.90;;;;;;6239638;28;20058;-71
2023/06/01 01:32:45;;;;;;;2.88;1.85;;;20.30;57.80;;;;;;6239624;28;20068;-72
2023/06/01 01:35:56;;;;;;;4.45;2.42;;;20.20;57.70;;;;;;6221607;28;20040;-72
2023/06/01 01:39:16;;;;;;;4.40;2.22;;;20.30;57.80;;;;;;6239704;28;20091;-72
2023/06/01 01:42:34;;;;;;;5.93;2.20;;;20.20;57.80;;;;;;6239629;28;20029;-71
2023/06/01 01:45:49;;;;;;;5.97;2.30;;;20.20;57.80;;;;;;6239582;28;20049;-71
2023/06/01 01:49:27;;;;;;;7.88;2.22;;;20.20;57.90;;;;;;6239330;28;20028;-71
2023/06/01 01:52:39;;;;;;;4.47;2.15;;;20.10;57.90;;;;;;6239729;28;20033;-71
2023/06/01 01:55:54;;;;;;;2.88;2.00;;;20.20;57.90;;;;;;6235764;28;20033;-72
2023/06/01 01:59:08;;;;;;;7.78;2.22;;;20.20;57.80;;;;;;6214931;28;20029;-72
2023/06/01 02:02:25;;;;;;;4.95;2.67;;;20.20;57.80;;;;;;6214955;28;20093;-71
2023/06/01 02:05:33;;;;;;;5.05;2.08;;;20.20;57.70;;;;;;6214735;28;20033;-71
2023/06/01 02:08:49;;;;;;;6.75;2.30;;;20.10;57.70;;;;;;6232176;28;20044;-72
2023/06/01 02:12:01;;;;;;;3.67;2.10;;;20.10;57.80;;;;;;6239274;28;20044;-71
2023/06/01 02:15:20;;;;;;;4.35;2.22;;;20.10;57.80;;;;;;6221199;28;20037;-71
2023/06/01 02:18:32;;;;;;;6.83;2.10;;;20.10;57.70;;;;;;6239043;28;20116;-71
2023/06/01 02:21:37;;;;;;;8.15;2.97;;;20.10;57.70;;;;;;6239076;28;20036;-71
2023/06/01 02:24:51;;;;;;;4.50;2.50;;;20.10;57.60;;;;;;6239223;28;20039;-71
2023/06/01 02:28:07;;;;;;;3.90;2.28;;;20.20;57.70;;;;;;6238981;28;20021;-72
2023/06/01 02:31:20;;;;;;;3.88;2.17;;;20.20;57.70;;;;;;6238903;28;20022;-71
2023/06/01 02:35:06;;;;;;;9.88;2.45;;;20.20;57.70;;;;;;6225350;28;20037;-71
2023/06/01 02:38:21;;;;;;;5.85;2.50;;;20.20;57.60;;;;;;6238923;28;20025;-72
2023/06/01 02:41:32;;;;;;;6.43;2.65;;;20.30;57.60;;;;;;6239286;28;20120;-71
2023/06/01 02:44:39;;;;;;;4.05;2.40;;;20.30;57.60;;;;;;6239022;28;20083;-73
2023/06/01 02:47:54;;;;;;;5.25;2.05;;;20.20;57.70;;;;;;6238696;28;20064;-71
2023/06/01 02:51:15;;;;;;;8.93;2.72;;;20.20;57.70;;;;;;6238855;28;20033;-71
2023/06/01 02:54:32;;;;;;;4.03;2.40;;;20.30;57.70;;;;;;6238258;28;20029;-71
2023/06/01 02:57:48;;;;;;;3.45;2.20;;;20.30;57.60;;;;;;6218141;28;20109;-72
2023/06/01 03:01:01;;;;;;;13.63;2.25;;;20.40;57.60;;;;;;6200870;28;20026;-71
2023/06/01 03:04:17;;;;;;;5.32;2.50;;;20.40;57.50;;;;;;6228508;28;20091;-71
2023/06/01 03:07:31;;;;;;;5.93;2.40;;;20.40;57.50;;;;;;6241652;28;20045;-72
2023/06/01 03:10:47;;;;;;;6.88;2.70;;;20.50;57.60;;;;;;6241420;28;20060;-72
2023/06/01 03:14:03;;;;;;;;;;;20.40;57.40;;;;;;6242554;28;20057;-71
2023/06/01 03:17:15;;;;;;;3.47;1.98;;;20.40;57.30;;;;;;6241915;28;19971;-73
2023/06/01 03:20:27;;;;;;;6.07;2.58;;;20.40;57.30;;;;;;6241819;28;20028;-71
2023/06/01 03:23:37;;;;;;;4.45;2.33;;;20.40;57.30;;;;;;6224471;28;20056;-71
2023/06/01 03:26:49;;;;;;;8.10;2.45;;;20.40;57.20;;;;;;6241660;28;20042;-71
2023/06/01 03:30:09;;;;;;;6.63;2.30;;;20.40;57.20;;;;;;6241533;28;20084;-72
2023/06/01 03:33:27;;;;;;;3.20;1.90;;;20.30;57.20;;;;;;6241400;28;20033;-72
2023/06/01 03:36:41;;;;;;;9.00;2.55;;;20.30;57.30;;;;;;6241451;28;20037;-72
2023/06/01 03:39:50;;;;;;;5.07;2.20;;;20.30;57.40;;;;;;6241213;28;20029;-72
2023/06/01 03:43:05;;;;;;;5.43;2.20;;;20.20;57.40;;;;;;6241505;28;20025;-72
2023/06/01 03:46:20;;;;;;;4.25;2.30;;;20.30;57.50;;;;;;6206074;28;20053;-72
2023/06/01 03:49:32;;;;;;;8.20;2.78;;;20.20;57.60;;;;;;6241093;28;20044;-73
2023/06/01 03:52:44;;;;;;;13.05;2.40;;;20.20;57.90;;;;;;6222516;28;20065;-71
2023/06/01 03:56:02;;;;;;;11.80;2.20;;;20.20;58.10;;;;;;5914177;28;9310717;-70
2023/06/01 03:59:25;;;;;;;5.72;2.00;;;20.10;58.30;;;;;;6219807;28;20022;-71
2023/06/01 04:02:40;;;;;;;5.47;2.08;;;20.10;58.60;;;;;;6242409;28;20074;-70
2023/06/01 04:05:58;;;;;;;4.53;2.00;;;20.10;58.70;;;;;;6242287;28;20087;-71
2023/06/01 04:09:22;;;;;;;2.85;2.08;;;20.00;58.70;;;;;;6223557;28;20038;-71
2023/06/01 04:12:34;;;;;;;7.38;2.33;;;20.00;58.80;;;;;;6242008;28;20040;-72
2023/06/01 04:15:44;;;;;;;7.57;3.00;;;20.00;58.80;;;;;;6242098;28;20043;-72
2023/06/01 04:19:10;;;;;;;7.13;2.50;;;19.90;58.90;;;;;;6241689;28;20065;-73
2023/06/01 04:22:32;;;;;;;7.33;2.70;;;20.00;58.90;;;;;;6223750;28;20158;-72
2023/06/01 04:25:58;;;;;;;5.13;2.20;;;20.00;59.00;;;;;;6241786;28;20279;-71
2023/06/01 04:29:15;;;;;;;6.18;2.83;;;19.90;59.00;;;;;;6241709;28;20034;-73
2023/06/01 04:32:37;;;;;;;8.13;2.35;;;19.80;59.30;;;;;;6223288;28;20029;-71
2023/06/01 04:35:52;;;;;;;4.43;2.38;;;19.60;59.50;;;;;;6241642;28;20047;-71
2023/06/01 04:39:04;;;;;;;3.72;1.95;;;19.60;59.70;;;;;;6241384;28;20115;-72
2023/06/01 04:42:21;;;;;;;6.82;2.35;;;19.60;59.90;;;;;;6207252;28;20385;-71
2023/06/01 04:45:40;;;;;;;4.95;2.05;;;19.50;60.00;;;;;;6241554;28;20079;-72
2023/06/01 04:48:51;;;;;;;4.50;2.72;;;19.50;60.20;;;;;;6240920;28;20033;-72
2023/06/01 04:52:12;;;;;;;4.88;2.25;;;19.40;60.10;;;;;;6222764;28;20183;-71
2023/06/01 04:55:27;;;;;;;5.93;2.70;;;19.40;60.30;;;;;;6240672;28;20111;-71
2023/06/01 04:58:39;;;;;;;4.65;3.00;;;19.50;60.50;;;;;;6240229;28;20029;-71
2023/06/01 05:01:47;;;;;;;8.25;2.90;;;19.50;60.30;;;;;;6222860;28;20080;-72
2023/06/01 05:04:56;;;;;;;10.85;2.78;;;19.50;60.30;;;;;;6242729;28;20026;-71
2023/06/01 05:08:14;;;;;;;4.38;2.55;;;19.40;60.40;;;;;;6247171;28;20081;-71
2023/06/01 05:11:28;;;;;;;8.88;3.20;;;19.50;60.50;;;;;;6243651;28;20129;-71
2023/06/01 05:14:43;;;;;;;4.30;2.45;;;19.50;60.70;;;;;;6222412;28;20034;-72
2023/06/01 05:17:56;;;;;;;7.05;2.92;;;19.50;60.70;;;;;;6240505;28;20061;-72
2023/06/01 05:21:10;;;;;;;5.72;2.97;;;19.50;60.70;;;;;;6223209;28;20115;-72
2023/06/01 05:24:24;;;;;;;4.15;2.55;;;19.60;60.70;;;;;;6240425;28;20404;-72
2023/06/01 05:27:37;;;;;;;5.95;2.70;;;19.60;60.50;;;;;;6240309;28;20171;-71
2023/06/01 05:30:49;;;;;;;9.75;3.40;;;19.50;60.30;;;;;;6240362;28;20084;-71
2023/06/01 05:33:56;;;;;;;7.43;3.33;;;19.70;60.40;;;;;;6205705;28;20057;-71
2023/06/01 05:37:14;;;;;;;7.80;3.33;;;19.70;60.30;;;;;;6239923;28;20033;-72
2023/06/01 05:40:27;;;;;;;6.90;3.30;;;19.70;60.40;;;;;;6240424;28;20029;-71
2023/06/01 05:43:40;;;;;;;7.78;3.67;;;19.80;60.30;;;;;;6222853;28;20041;-72
2023/06/01 05:46:52;;;;;;;12.40;3.45;;;19.80;60.30;;;;;;6239986;28;20040;-71
2023/06/01 05:50:04;;;;;;;6.30;2.92;;;19.90;60.00;;;;;;6240214;28;20034;-73
2023/06/01 05:53:23;;;;;;;15.45;3.00;;;19.90;59.90;;;;;;6239400;28;20138;-72
2023/06/01 05:56:40;;;;;;;9.85;3.22;;;20.10;59.70;;;;;;6239572;28;20095;-71
2023/06/01 05:59:53;;;;;;;4.93;2.67;;;20.10;60.10;;;;;;6231997;28;20033;-71
2023/06/01 06:03:05;;;;;;;7.70;2.80;;;20.20;59.40;;;;;;6214753;28;20102;-72
2023/06/01 06:06:20;;;;;;;9.70;3.15;;;20.30;59.20;;;;;;6215825;28;20033;-72
2023/06/01 06:09:34;;;;;;;6.30;2.83;;;20.40;59.00;;;;;;6197577;28;20062;-70
2023/06/01 06:12:47;;;;;;;5.63;3.13;;;20.50;58.80;;;;;;6215299;28;20041;-71
2023/06/01 06:15:55;;;;;;;6.20;3.20;;;20.60;58.50;;;;;;6215596;28;20029;-72
2023/06/01 06:19:18;;;;;;;14.32;2.90;;;20.70;58.40;;;;;;6215433;28;20109;-72
2023/06/01 06:22:32;;;;;;;5.03;2.53;;;20.70;58.30;;;;;;6214939;28;20042;-71
2023/06/01 06:25:49;;;;;;;9.40;3.95;;;20.90;58.20;;;;;;6214852;28;20113;-71
2023/06/01 06:28:59;;;;;;;7.20;3.10;;;20.90;57.80;;;;;;6214687;28;20034;-73
2023/06/01 06:32:12;;;;;;;5.68;3.00;;;21.00;57.70;;;;;;6217157;28;20038;-72
2023/06/01 06:35:24;;;;;;;5.25;3.13;;;21.00;57.60;;;;;;6243624;28;20025;-73
2023/06/01 06:38:38;;;;;;;5.20;2.90;;;21.10;57.40;;;;;;6244319;28;20021;-71
2023/06/01 06:41:52;;;;;;;5.25;2.97;;;21.10;57.10;;;;;;6244543;28;20083;-72
2023/06/01 06:45:11;;;;;;;7.70;3.38;;;21.20;57.10;;;;;;6229064;28;20070;-71
2023/06/01 06:48:22;;;;;;;16.98;3.17;;;21.30;57.00;;;;;;6227994;28;20025;-73
2023/06/01 06:51:32;;;;;;;6.78;3.60;;;21.50;56.80;;;;;;6243890;28;20449;-72
2023/06/01 06:54:54;;;;;;;5.20;2.88;;;21.60;56.50;;;;;;6226462;28;20113;-71
2023/06/01 06:58:11;;;;;;;6.55;3.03;;;21.80;56.30;;;;;;6241923;28;20033;-71
2023/06/01 07:01:24;;;;;;;7.47;3.20;;;21.90;55.90;;;;;;6243994;28;20026;-72
2023/06/01 07:04:32;;;;;;;5.88;2.60;;;22.10;55.70;;;;;;6243642;28;20029;-71
2023/06/01 07:07:50;;;;;;;12.30;3.17;;;22.20;55.20;;;;;;6243322;28;20083;-71
2023/06/01 07:10:57;;;;;;;24.88;5.78;;;22.30;54.80;;;;;;6243499;28;20065;-71
2023/06/01 07:14:22;;;;;;;6.63;2.88;;;22.50;54.80;;;;;;6243998;28;20067;-71
2023/06/01 07:17:41;;;;;;;7.15;2.88;;;22.70;54.30;;;;;;6243745;28;20033;-72
2023/06/01 07:20:58;;;;;;;5.35;2.75;;;22.80;53.80;;;;;;6228119;28;20045;-72
2023/06/01 07:24:12;;;;;;;8.95;2.50;;;23.00;53.50;;;;;;6227522;28;20052;-74
2023/06/01 07:27:26;;;;;;;7.47;2.70;;;23.10;53.00;;;;;;6228759;28;20117;-72
2023/06/01 07:30:32;;;;;;;8.50;3.00;;;23.20;52.80;;;;;;6246318;28;20112;-73
2023/06/01 07:33:40;;;;;;;5.53;2.70;;;23.20;52.70;;;;;;6217561;28;20052;-73
2023/06/01 07:36:58;;;;;;;5.40;2.63;;;23.30;52.40;;;;;;6218782;28;20064;-72
2023/06/01 07:40:09;;;;;;;6.10;3.35;;;23.40;51.90;;;;;;6200441;28;20030;-72
2023/06/01 07:43:20;;;;;;;8.77;2.80;;;23.50;51.80;;;;;;6200560;28;20040;-71
2023/06/01 07:46:28;;;;;;;6.13;3.03;;;23.50;51.70;;;;;;6219103;28;20037;-73
2023/06/01 07:49:39;;;;;;;9.75;3.13;;;23.60;51.70;;;;;;6242549;28;20030;-72
2023/06/01 07:52:47;;;;;;;7.38;2.97;;;23.80;51.50;;;;;;6231309;28;20132;-72
2023/06/01 07:55:53;;;;;;;5.32;2.25;;;23.90;51.20;;;;;;6203662;28;20026;-71
2023/06/01 07:59:02;;;;;;;9.25;2.67;;;24.10;50.60;;;;;;6222775;28;20056;-71
2023/06/01 08:02:16;;;;;;;4.40;2.55;;;24.20;50.30;;;;;;6241614;28;20029;-72
2023/06/01 08:05:30;;;;;;;10.07;2.88;;;24.30;50.10;;;;;;6242069;28;20029;-72
2023/06/01 08:08:45;;;;;;;6.15;2.60;;;24.40;49.80;;;;;;6242176;28;20025;-72
2023/06/01 08:12:00;;;;;;;5.22;2.95;;;24.50;49.50;;;;;;6242132;28;20673;-72
2023/06/01 08:15:08;;;;;;;4.60;2.70;;;24.70;49.10;;;;;;6242100;28;20026;-72
2023/06/01 08:18:22;;;;;;;5.57;2.47;;;24.80;48.60;;;;;;6241875;28;20034;-72
2023/06/01 08:21:33;;;;;;;7.00;2.63;;;24.80;48.20;;;;;;6207856;28;20033;-72
2023/06/01 08:24:51;;;;;;;6.10;2.88;;;24.90;48.20;;;;;;6241964;28;20048;-72
2023/06/01 08:28:03;;;;;;;4.30;2.55;;;25.00;47.80;;;;;;6223079;28;20037;-74
2023/06/01 08:31:25;;;;;;;5.10;2.87;;;25.10;47.50;;;;;;6241098;28;20052;-74
2023/06/01 08:34:34;;;;;;;7.50;2.78;;;25.20;47.50;;;;;;6240502;28;20025;-72
2023/06/01 08:37:45;;;;;;;10.57;2.50;;;25.30;47.10;;;;;;6240595;28;20040;-72
2023/06/01 08:40:55;;;;;;;4.45;2.45;;;25.50;46.90;;;;;;6241158;28;20044;-73
2023/06/01 08:44:09;;;;;;;3.80;2.42;;;25.60;46.50;;;;;;6241838;28;20029;-73
2023/06/01 08:47:26;;;;;;;5.38;2.50;;;25.70;45.90;;;;;;6241252;28;20368;-72
2023/06/01 08:50:36;;;;;;;4.60;2.95;;;25.80;45.50;;;;;;6217741;28;20038;-72
2023/06/01 08:53:45;;;;;;;6.20;2.58;;;25.90;45.40;;;;;;6220376;28;20059;-72
2023/06/01 08:57:06;;;;;;;7.40;2.53;;;26.00;45.40;;;;;;6227679;28;20042;-72
2023/06/01 09:00:26;;;;;;;7.18;3.10;;;26.10;45.10;;;;;;6200036;28;20083;-73
2023/06/01 09:03:37;;;;;;;5.53;2.38;;;26.20;44.50;;;;;;6215842;28;20022;-73
2023/06/01 09:06:47;;;;;;;;;;;26.30;44.00;;;;;;6216336;28;20068;-71
2023/06/01 09:10:01;;;;;;;7.18;2.88;;;26.30;43.80;;;;;;6197671;28;20019;-71
2023/06/01 09:13:11;;;;;;;4.32;2.72;;;26.20;43.60;;;;;;6215703;28;20433;-72
2023/06/01 09:16:20;;;;;;;5.90;3.10;;;26.20;43.60;;;;;;6197984;28;20057;-73
2023/06/01 09:19:44;;;;;;;3.13;2.45;;;26.10;43.70;;;;;;6198333;28;20025;-73
2023/06/01 09:23:06;;;;;;;13.15;2.20;;;26.20;43.90;;;;;;6215255;28;20143;-71
2023/06/01 09:26:28;;;;;;;2.95;2.00;;;26.30;43.40;;;;;;6197005;28;20029;-72
2023/06/01 09:29:39;;;;;;;7.45;2.70;;;26.30;43.70;;;;;;6215287;28;20037;-72
2023/06/01 09:32:52;;;;;;;3.78;2.05;;;26.40;42.60;;;;;;6222855;28;20456;-72
2023/06/01 09:36:08;;;;;;;5.28;2.33;;;26.50;42.40;;;;;;6222704;28;20029;-72
2023/06/01 09:39:20;;;;;;;4.97;2.47;;;26.60;42.20;;;;;;6221721;28;20061;-71
2023/06/01 09:42:37;;;;;;;3.25;1.98;;;26.70;42.00;;;;;;6239905;28;20041;-72
2023/06/01 09:45:44;;;;;;;6.20;2.30;;;26.70;41.70;;;;;;6239988;28;20040;-71
2023/06/01 09:49:10;;;;;;;8.38;2.95;;;26.70;41.50;;;;;;6239518;28;20048;-72
2023/06/01 09:52:24;;;;;;;4.80;2.45;;;26.70;41.60;;;;;;6211294;28;20030;-73
2023/06/01 09:55:32;;;;;;;9.85;3.13;;;26.80;41.50;;;;;;6214944;28;20030;-72
2023/06/01 09:58:41;;;;;;;4.50;2.67;;;26.90;41.50;;;;;;6215078;28;20029;-73
2023/06/01 10:01:51;;;;;;;4.45;2.40;;;27.00;41.40;;;;;;6214967;28;20026;-73
2023/06/01 10:05:01;;;;;;;4.50;2.80;;;27.00;41.20;;;;;;6181641;28;20112;-73
2023/06/01 10:08:24;;;;;;;3.70;2.38;;;27.20;41.00;;;;;;6214878;28;20113;-73
2023/06/01 10:11:32;;;;;;;8.00;2.85;;;27.30;40.80;;;;;;6214946;28;20147;-73
2023/06/01 10:14:41;;;;;;;5.53;2.53;;;27.30;40.80;;;;;;6197515;28;20025;-72
2023/06/01 10:17:49;;;;;;;7.55;2.80;;;27.40;40.70;;;;;;6181248;28;20095;-72
2023/06/01 10:21:08;;;;;;;7.53;2.75;;;27.40;40.60;;;;;;6197499;28;20030;-72
2023/06/01 10:24:19;;;;;;;4.82;2.78;;;27.50;40.30;;;;;;6214791;28;20256;-72
2023/06/01 10:27:41;;;;;;;5.55;2.80;;;27.50;39.90;;;;;;6214787;28;20808;-73
2023/06/01 10:31:11;;;;;;;7.32;3.08;;;27.60;39.60;;;;;;6197205;28;20037;-73
2023/06/01 10:34:44;;;;;;;14.90;3.50;;;27.70;39.70;;;;;;6224502;28;20061;-74
2023/06/01 10:38:22;;;;;;;5.32;3.10;;;27.80;39.60;;;;;;6238747;28;20041;-74
2023/06/01 10:41:35;;;;;;;4.07;2.58;;;28.10;39.40;;;;;;6218759;28;20029;-72
2023/06/01 10:44:45;;;;;;;5.13;3.22;;;28.20;39.00;;;;;;6238137;28;20034;-73
2023/06/01 10:47:56;;;;;;;7.72;2.40;;;28.20;38.90;;;;;;6239481;28;20030;-72
2023/06/01 10:51:25;;;;;;;6.53;3.05;;;28.30;38.70;;;;;;6238639;28;20025;-73
2023/06/01 10:54:37;;;;;;;9.48;2.88;;;28.50;38.50;;;;;;6214960;28;20064;-73
2023/06/01 10:57:50;;;;;;;4.38;2.90;;;28.60;38.10;;;;;;6198024;28;20489;-72
2023/06/01 11:01:02;;;;;;;6.78;3.05;;;28.80;37.80;;;;;;6197038;28;20041;-73
2023/06/01 11:04:39;;;;;;;5.32;2.67;;;29.00;37.50;;;;;;6197080;28;20029;-72
2023/06/01 11:07:49;;;;;;;5.65;3.00;;;29.40;37.10;;;;;;6180924;28;20421;-72
2023/06/01 11:11:07;;;;;;;6.28;3.90;;;29.90;36.80;;;;;;6214344;28;20034;-72
2023/06/01 11:14:33;;;;;;;5.70;3.03;;;30.00;36.40;;;;;;6196330;28;20052;-72
2023/06/01 11:17:44;;;;;;;5.15;2.95;;;30.10;36.20;;;;;;6180370;28;20065;-74
2023/06/01 11:20:58;;;;;;;3.75;2.35;;;30.40;36.20;;;;;;6217073;28;20219;-74
2023/06/01 11:24:19;;;;;;;9.75;3.20;;;30.60;35.90;;;;;;6218519;28;20091;-73
2023/06/01 11:27:33;;;;;;;5.35;2.88;;;31.10;35.60;;;;;;6218191;28;20041;-73
2023/06/01 11:30:46;;;;;;;4.80;2.90;;;32.40;34.00;;;;;;6232039;28;20065;-74
2023/06/01 11:34:01;;;;;;;8.60;3.10;;;33.50;32.30;;;;;;6225713;28;20033;-75
2023/06/01 11:37:21;;;;;;;7.25;3.00;;;34.20;31.30;;;;;;6223926;28;20080;-73
2023/06/01 11:40:29;;;;;;;4.28;2.75;;;34.60;30.30;;;;;;6242742;28;20029;-74
2023/06/01 11:43:47;;;;;;;8.37;2.97;;;34.60;30.30;;;;;;6243289;28;20060;-73
2023/06/01 11:47:20;;;;;;;6.82;2.70;;;34.60;30.40;;;;;;6242883;28;20264;-75
2023/06/01 11:50:35;;;;;;;4.22;2.72;;;34.50;30.50;;;;;;6225150;28;20041;-74
2023/06/01 11:53:43;;;;;;;6.20;3.33;;;34.60;30.40;;;;;;6220416;28;20030;-73
2023/06/01 11:56:48;;;;;;;5.70;3.25;;;34.40;30.40;;;;;;6199791;28;20037;-74
2023/06/01 11:59:58;;;;;;;5.03;3.10;;;34.10;30.70;;;;;;6217871;28;20080;-73
2023/06/01 12:03:11;;;;;;;4.28;2.78;;;33.80;31.10;;;;;;6218553;28;20118;-75
2023/06/01 12:06:29;;;;;;;8.88;2.80;;;33.40;31.30;;;;;;6200160;28;20042;-74
2023/06/01 12:09:36;;;;;;;6.70;3.30;;;32.90;31.80;;;;;;6218131;28;20029;-74
2023/06/01 12:12:46;;;;;;;4.05;2.45;;;32.50;32.50;;;;;;6218293;28;20039;-74
2023/06/01 12:15:59;;;;;;;7.35;3.00;;;32.40;32.80;;;;;;6200395;28;20065;-74
2023/06/01 12:19:25;;;;;;;7.65;3.20;;;32.80;32.50;;;;;;6217540;28;20026;-74
2023/06/01 12:22:36;;;;;;;4.35;3.03;;;33.30;31.40;;;;;;6200360;28;20037;-73
2023/06/01 12:25:59;;;;;;;4.75;2.67;;;33.40;31.00;;;;;;6220282;28;20039;-72
2023/06/01 12:29:07;;;;;;;4.63;2.60;;;33.50;30.50;;;;;;6242273;28;20073;-74
2023/06/01 12:32:22;;;;;;;6.80;2.72;;;33.50;30.50;;;;;;6220414;28;20042;-73
2023/06/01 12:35:32;;;;;;;6.55;2.72;;;33.90;30.10;;;;;;6223162;28;20081;-73
2023/06/01 12:39:03;;;;;;;6.85;2.90;;;34.30;29.70;;;;;;6241963;28;20446;-73
2023/06/01 12:42:26;;;;;;;3.63;2.70;;;35.10;29.00;;;;;;6241839;28;20051;-74
2023/06/01 12:45:46;;;;;;;7.78;2.78;;;36.00;28.20;;;;;;6241368;28;20485;-74
2023/06/01 12:48:55;;;;;;;6.72;3.10;;;36.20;27.80;;;;;;6223386;28;20050;-76
2023/06/01 12:52:11;;;;;;;4.53;2.58;;;36.20;27.60;;;;;;6231084;28;20022;-74
2023/06/01 12:55:24;;;;;;;3.28;2.50;;;36.40;27.40;;;;;;6199586;28;20045;-72
2023/06/01 12:58:33;;;;;;;3.60;2.47;;;36.90;27.00;;;;;;6217165;28;20092;-74
2023/06/01 13:01:50;;;;;;;9.02;2.70;;;37.00;26.90;;;;;;6217893;28;20402;-75
2023/06/01 13:05:01;;;;;;;7.73;2.87;;;37.40;26.30;;;;;;6199002;28;20029;-72
2023/06/01 13:08:12;;;;;;;7.75;2.78;;;37.90;25.80;;;;;;6216430;28;20640;-73
2023/06/01 13:11:23;;;;;;;3.60;2.65;;;38.40;25.30;;;;;;6218102;28;20424;-73
2023/06/01 13:14:34;;;;;;;6.38;2.80;;;39.00;24.60;;;;;;6199340;28;20128;-72
2023/06/01 13:17:46;;;;;;;5.35;2.60;;;39.50;24.30;;;;;;6200020;28;20061;-74
2023/06/01 13:20:58;;;;;;;5.10;2.67;;;39.80;23.80;;;;;;6201309;28;20117;-74
2023/06/01 13:24:19;;;;;;;4.32;2.45;;;40.20;23.60;;;;;;6237805;28;20091;-73
2023/06/01 13:27:36;;;;;;;15.57;2.90;;;40.80;22.80;;;;;;6241345;28;20029;-73
2023/06/01 13:30:49;;;;;;;5.13;2.63;;;41.90;22.10;;;;;;6240931;28;20037;-75
2023/06/01 13:34:03;;;;;;;4.10;2.42;;;42.20;21.20;;;;;;6240825;28;20033;-74
2023/06/01 13:37:12;;;;;;;4.68;2.97;;;42.70;21.10;;;;;;6239032;28;20037;-74
2023/06/01 13:40:25;;;;;;;5.00;2.63;;;43.30;20.60;;;;;;6221894;28;20123;-73
2023/06/01 13:43:36;;;;;;;5.28;2.40;;;43.80;20.00;;;;;;6240114;28;20040;-73
2023/06/01 13:46:50;;;;;;;3.53;2.78;;;44.30;19.90;;;;;;6240533;28;20116;-74
2023/06/01 13:50:04;;;;;;;3.72;2.58;;;45.00;19.40;;;;;;6223307;28;20111;-73
2023/06/01 13:53:19;;;;;;;4.82;2.55;;;45.40;19.00;;;;;;6240084;28;20040;-74
2023/06/01 13:56:32;;;;;;;4.28;2.63;;;45.70;18.80;;;;;;6231212;28;20065;-74
2023/06/01 13:59:41;;;;;;;3.20;2.35;;;45.20;19.10;;;;;;6214899;28;20038;-73
2023/06/01 14:02:48;;;;;;;3.97;2.75;;;44.60;19.00;;;;;;6215338;28;20030;-73
2023/06/01 14:06:03;;;;;;;8.45;2.70;;;44.60;19.10;;;;;;6215385;28;20038;-73
2023/06/01 14:09:12;;;;;;;7.80;2.85;;;44.90;18.90;;;;;;6197461;28;20046;-74
2023/06/01 14:12:32;;;;;;;6.20;2.30;;;45.20;18.60;;;;;;6197206;28;20123;-73
2023/06/01 14:15:44;;;;;;;7.70;2.55;;;45.50;18.50;;;;;;6215336;28;20147;-72
2023/06/01 14:18:54;;;;;;;3.75;2.47;;;45.60;18.20;;;;;;6224144;28;20041;-73
2023/06/01 14:22:12;;;;;;;3.30;2.58;;;45.60;18.30;;;;;;6240134;28;20087;-74
2023/06/01 14:25:27;;;;;;;4.25;2.60;;;45.50;18.20;;;;;;6239032;28;20099;-73
2023/06/01 14:28:38;;;;;;;3.25;2.50;;;45.40;18.40;;;;;;6215440;28;20052;-74
2023/06/01 14:31:50;;;;;;;3.75;2.72;;;45.40;18.40;;;;;;6213979;28;20034;-72
2023/06/01 14:35:03;;;;;;;4.90;2.92;;;45.70;18.30;;;;;;6215487;28;20030;-72
2023/06/01 14:38:13;;;;;;;3.05;2.28;;;46.00;18.00;;;;;;6214948;28;20068;-74
2023/06/01 14:41:27;;;;;;;11.00;2.97;;;46.00;17.80;;;;;;6215156;28;20071;-73
2023/06/01 14:44:37;;;;;;;8.48;2.63;;;45.60;18.00;;;;;;6198168;28;20034;-73
2023/06/01 14:47:50;;;;;;;3.78;2.75;;;45.10;18.20;;;;;;6197662;28;20030;-72
2023/06/01 14:51:06;;;;;;;3.95;2.33;;;44.80;18.40;;;;;;6214507;28;20150;-73
2023/06/01 14:54:18;;;;;;;4.55;2.50;;;44.70;18.40;;;;;;6214808;28;20113;-75
2023/06/01 14:57:28;;;;;;;3.28;2.30;;;44.10;18.80;;;;;;6234452;28;20465;-72
2023/06/01 15:00:40;;;;;;;4.80;2.63;;;43.20;19.40;;;;;;6226049;28;20025;-73
2023/06/01 15:03:51;;;;;;;4.93;2.67;;;42.40;20.00;;;;;;6225684;28;20115;-73
2023/06/01 15:07:06;;;;;;;7.38;2.92;;;42.50;20.00;;;;;;6225340;28;20112;-73
2023/06/01 15:10:20;;;;;;;3.35;2.47;;;42.60;19.80;;;;;;6243122;28;20038;-72
2023/06/01 15:13:32;;;;;;;3.88;2.90;;;42.60;19.90;;;;;;6243054;28;20108;-73
2023/06/01 15:16:43;;;;;;;13.63;2.70;;;42.50;20.10;;;;;;6224423;28;20159;-73
2023/06/01 15:19:50;;;;;;;4.18;2.92;;;42.60;20.00;;;;;;6225289;28;20444;-71
2023/06/01 15:23:10;;;;;;;3.60;2.30;;;42.70;19.90;;;;;;6223819;28;20089;-74
2023/06/01 15:26:21;;;;;;;4.68;2.72;;;42.80;19.80;;;;;;6224453;28;20086;-72
2023/06/01 15:29:33;;;;;;;4.03;2.75;;;42.60;19.80;;;;;;6242666;28;20029;-72
2023/06/01 15:32:46;;;;;;;4.00;2.50;;;42.50;19.80;;;;;;6242050;28;20051;-72
2023/06/01 15:35:55;;;;;;;5.43;2.42;;;42.60;19.80;;;;;;6242194;28;20034;-73
2023/06/01 15:39:19;;;;;;;2.85;2.10;;;42.70;19.80;;;;;;6241937;28;20053;-72
2023/06/01 15:42:29;;;;;;;3.78;2.47;;;42.40;19.80;;;;;;6242076;28;20018;-72
2023/06/01 15:45:37;;;;;;;3.75;2.53;;;42.30;20.00;;;;;;6242379;28;20033;-74
2023/06/01 15:48:51;;;;;;;3.95;2.30;;;42.20;20.00;;;;;;6241629;28;20032;-73
2023/06/01 15:52:08;;;;;;;3.08;2.47;;;42.00;20.00;;;;;;6241539;28;20035;-73
2023/06/01 15:55:20;;;;;;;6.75;3.03;;;42.00;20.00;;;;;;6222771;28;20428;-72
2023/06/01 15:58:31;;;;;;;4.30;2.42;;;42.10;20.10;;;;;;6216773;28;20026;-72
2023/06/01 16:01:39;;;;;;;3.65;2.45;;;41.90;20.40;;;;;;6198185;28;20026;-73
2023/06/01 16:04:51;;;;;;;5.50;2.67;;;41.80;20.70;;;;;;6216453;28;20060;-72
2023/06/01 16:08:03;;;;;;;5.65;2.88;;;41.80;20.80;;;;;;6216917;28;20034;-73
2023/06/01 16:11:19;;;;;;;3.47;2.40;;;41.50;20.80;;;;;;6223410;28;20029;-73
2023/06/01 16:14:28;;;;;;;5.28;2.58;;;41.30;21.10;;;;;;6241116;28;20140;-71
2023/06/01 16:17:36;;;;;;;3.90;2.42;;;41.20;21.10;;;;;;6241210;28;20025;-72
2023/06/01 16:20:50;;;;;;;4.72;2.53;;;41.50;20.90;;;;;;6216639;28;20081;-72
2023/06/01 16:23:59;;;;;;;4.25;2.53;;;41.70;20.70;;;;;;6216829;28;20030;-73
2023/06/01 16:27:14;;;;;;;4.10;2.70;;;41.90;20.80;;;;;;6215693;28;20079;-71
2023/06/01 16:30:24;;;;;;;10.90;2.53;;;42.00;20.60;;;;;;6216317;28;20029;-72
2023/06/01 16:33:30;;;;;;;3.75;2.47;;;42.10;20.60;;;;;;6198385;28;20073;-72
2023/06/01 16:36:36;;;;;;;6.28;2.53;;;42.30;20.40;;;;;;6216895;28;20022;-73
2023/06/01 16:39:46;;;;;;;2.83;2.40;;;42.40;20.40;;;;;;6216251;28;20060;-72
2023/06/01 16:42:54;;;;;;;4.22;2.63;;;42.40;20.30;;;;;;6215982;28;20029;-72
2023/06/01 16:46:02;;;;;;;8.30;2.97;;;42.40;20.50;;;;;;6198198;28;20168;-72
2023/06/01 16:49:08;;;;;;;4.43;2.28;;;42.00;20.60;;;;;;6198007;28;20073;-72